Time;durP1;ratioP1;P1;durP2;ratioP2;P2;SDS_P1;SDS_P2;PMS_P1;PMS_P2;Temp;Humidity;BMP_temperature;BMP_pressure;BME280_temperature;BME280_humidity;BME280_pressure;Samples;Min_cycle;Max_cycle;Signal;HPM_P1;HPM_P2
2023/03/17 00:00:49;;;;;;;7.70;4.00;;;7.10;99.90;;;;;;6246198;22;20039;-81
2023/03/17 00:03:23;;;;;;;7.30;3.72;;;7.10;99.90;;;;;;6245231;22;20055;-80
2023/03/17 00:05:49;;;;;;;6.03;4.20;;;7.10;99.90;;;;;;6273823;22;20070;-80
2023/03/17 00:08:24;;;;;;;6.28;3.97;;;7.20;99.90;;;;;;6245551;22;20087;-80
2023/03/17 00:10:51;;;;;;;8.57;4.07;;;7.20;99.90;;;;;;6245986;22;20102;-80
2023/03/17 00:13:17;;;;;;;6.53;3.90;;;7.20;99.90;;;;;;6273373;22;20083;-80
2023/03/17 00:15:44;;;;;;;5.97;3.90;;;7.30;99.90;;;;;;6273074;22;20079;-80
2023/03/17 00:18:17;;;;;;;6.20;4.00;;;7.30;99.90;;;;;;6245846;22;20457;-80
2023/03/17 00:20:43;;;;;;;7.68;4.05;;;7.30;99.90;;;;;;6246248;22;20083;-80
2023/03/17 00:23:18;;;;;;;10.13;4.40;;;7.30;99.90;;;;;;6273464;22;20039;-80
2023/03/17 00:25:45;;;;;;;9.68;4.05;;;7.30;99.90;;;;;;6273895;22;20367;-80
2023/03/17 00:28:22;;;;;;;5.57;4.05;;;7.20;99.90;;;;;;6245597;22;20460;-80
2023/03/17 00:30:53;;;;;;;7.70;3.85;;;7.20;99.90;;;;;;6245288;22;20008;-80
2023/03/17 00:33:21;;;;;;;7.18;3.90;;;7.10;99.90;;;;;;6245683;22;20083;-80
2023/03/17 00:35:46;;;;;;;10.13;4.10;;;7.20;99.90;;;;;;6220710;22;20008;-80
2023/03/17 00:38:17;;;;;;;7.03;4.18;;;7.10;99.90;;;;;;6273108;22;20405;-80
2023/03/17 00:40:44;;;;;;;6.05;4.15;;;7.10;99.90;;;;;;6246572;22;20024;-80
2023/03/17 00:43:10;;;;;;;7.95;3.92;;;7.20;99.90;;;;;;6246270;22;20008;-80
2023/03/17 00:45:37;;;;;;;5.18;3.63;;;7.20;99.90;;;;;;6219704;22;20012;-81
2023/03/17 00:48:09;;;;;;;7.60;4.50;;;7.20;99.90;;;;;;6245270;22;20079;-81
2023/03/17 00:50:35;;;;;;;5.03;3.60;;;7.20;99.90;;;;;;6245885;22;20082;-81
2023/03/17 00:53:01;;;;;;;5.28;3.80;;;7.20;99.90;;;;;;6245739;22;20107;-80
2023/03/17 00:55:27;;;;;;;6.25;3.75;;;7.20;99.90;;;;;;6273232;22;20106;-80
2023/03/17 00:57:52;;;;;;;7.57;4.03;;;7.20;99.90;;;;;;6272264;22;20432;-80
2023/03/17 01:00:25;;;;;;;5.38;3.80;;;7.20;99.90;;;;;;6245286;22;20023;-80
2023/03/17 01:02:53;;;;;;;6.63;4.00;;;7.20;99.90;;;;;;6245903;22;20403;-80
2023/03/17 01:05:20;;;;;;;6.97;3.92;;;7.60;99.90;;;;;;6245609;22;20015;-80
2023/03/17 01:07:51;;;;;;;7.72;3.67;;;7.30;99.90;;;;;;6245188;22;20101;-80
2023/03/17 01:10:21;;;;;;;6.28;4.13;;;7.30;99.90;;;;;;6273147;22;20022;-80
2023/03/17 01:12:48;;;;;;;7.60;3.80;;;7.30;99.90;;;;;;6272688;22;20015;-80
2023/03/17 01:15:14;;;;;;;6.93;3.80;;;7.30;99.90;;;;;;6272343;22;20300;-80
2023/03/17 01:17:40;;;;;;;9.68;4.45;;;7.30;99.90;;;;;;6219862;22;20012;-80
2023/03/17 01:20:10;;;;;;;9.13;4.90;;;7.30;99.90;;;;;;6245380;22;20030;-80
2023/03/17 01:22:35;;;;;;;5.85;3.97;;;7.30;99.90;;;;;;6245206;22;20573;-80
2023/03/17 01:25:01;;;;;;;7.78;4.13;;;7.30;99.90;;;;;;6272763;22;20091;-80
2023/03/17 01:27:27;;;;;;;8.93;4.30;;;7.40;99.90;;;;;;6244611;22;20016;-80
2023/03/17 01:29:54;;;;;;;9.75;3.90;;;7.30;99.90;;;;;;6272260;22;20026;-80
2023/03/17 01:32:21;;;;;;;8.95;4.25;;;7.30;99.90;;;;;;6245230;22;20039;-80
2023/03/17 01:34:46;;;;;;;6.65;3.92;;;7.30;99.90;;;;;;6245393;22;20016;-80
2023/03/17 01:37:13;;;;;;;7.40;3.78;;;7.40;99.90;;;;;;6272683;22;20053;-80
2023/03/17 01:39:39;;;;;;;5.20;3.88;;;7.30;99.90;;;;;;6272929;22;20012;-80
2023/03/17 01:42:06;;;;;;;9.13;4.03;;;7.30;99.90;;;;;;6245384;22;20444;-80
2023/03/17 01:44:32;;;;;;;8.63;4.22;;;7.40;99.90;;;;;;6272269;22;20012;-80
2023/03/17 01:46:58;;;;;;;6.45;3.53;;;7.40;99.90;;;;;;6244785;22;20012;-80
2023/03/17 01:49:36;;;;;;;6.75;4.00;;;7.30;99.90;;;;;;6272767;22;20350;-80
2023/03/17 01:52:13;;;;;;;7.55;4.05;;;7.30;99.90;;;;;;6245072;22;20077;-80
2023/03/17 01:54:51;;;;;;;8.65;4.13;;;7.30;99.90;;;;;;6272791;22;20083;-80
2023/03/17 01:57:23;;;;;;;7.18;4.10;;;7.30;99.90;;;;;;6244016;22;20418;-80
2023/03/17 01:59:52;;;;;;;6.07;3.50;;;7.30;99.90;;;;;;6245240;22;20043;-80
2023/03/17 02:02:29;;;;;;;5.80;3.90;;;7.30;99.90;;;;;;6245059;22;20023;-80
2023/03/17 02:04:56;;;;;;;8.32;4.20;;;7.30;99.90;;;;;;6245396;22;20087;-80
2023/03/17 02:07:22;;;;;;;6.85;3.90;;;7.30;99.90;;;;;;6272441;22;20008;-80
2023/03/17 02:09:48;;;;;;;5.72;3.80;;;7.30;99.90;;;;;;6272604;22;20007;-80
2023/03/17 02:12:14;;;;;;;9.25;4.30;;;7.30;99.90;;;;;;6244652;22;20019;-80
2023/03/17 02:14:40;;;;;;;6.70;3.67;;;7.30;99.90;;;;;;6245676;22;20026;-80
2023/03/17 02:17:06;;;;;;;9.52;3.97;;;7.30;99.90;;;;;;6271974;22;20091;-80
2023/03/17 02:19:33;;;;;;;10.50;4.65;;;7.30;99.90;;;;;;6272589;22;20027;-80
2023/03/17 02:21:59;;;;;;;6.38;4.00;;;7.50;99.90;;;;;;6272625;22;20333;-81
2023/03/17 02:24:34;;;;;;;9.60;4.20;;;7.30;99.90;;;;;;6244890;22;20020;-80
2023/03/17 02:27:07;;;;;;;8.05;4.47;;;7.30;99.90;;;;;;6271630;22;20306;-81
2023/03/17 02:29:35;;;;;;;9.60;4.22;;;7.30;99.90;;;;;;6245746;22;20016;-80
2023/03/17 02:32:01;;;;;;;9.45;4.43;;;7.20;99.90;;;;;;6274099;22;20012;-80
2023/03/17 02:34:27;;;;;;;7.63;3.83;;;7.20;99.90;;;;;;6274739;22;20011;-80
2023/03/17 02:36:53;;;;;;;7.55;3.83;;;7.20;99.90;;;;;;6246622;22;20097;-80
2023/03/17 02:39:18;;;;;;;7.43;4.07;;;7.50;99.90;;;;;;6274618;22;20050;-80
2023/03/17 02:41:44;;;;;;;8.43;4.50;;;7.00;99.90;;;;;;6273736;22;20018;-80
2023/03/17 02:44:10;;;;;;;7.72;4.35;;;7.00;99.90;;;;;;6247359;22;20028;-80
2023/03/17 02:46:35;;;;;;;6.28;4.22;;;6.90;99.90;;;;;;6221074;22;20030;-80
2023/03/17 02:49:02;;;;;;;8.15;4.18;;;6.90;99.90;;;;;;6274418;22;20333;-80
2023/03/17 02:51:27;;;;;;;7.10;3.97;;;6.90;99.90;;;;;;6274638;22;20008;-80
2023/03/17 02:53:53;;;;;;;10.50;4.30;;;6.90;99.90;;;;;;6246588;22;20484;-80
2023/03/17 02:56:18;;;;;;;6.70;4.13;;;6.90;99.90;;;;;;6245755;22;20499;-80
2023/03/17 02:58:44;;;;;;;7.28;4.00;;;7.00;99.90;;;;;;6247025;22;20015;-80
2023/03/17 03:01:10;;;;;;;6.70;4.20;;;7.00;99.90;;;;;;6274351;22;20410;-80
2023/03/17 03:03:37;;;;;;;9.05;4.22;;;7.10;99.90;;;;;;6246228;22;20073;-80
2023/03/17 03:06:03;;;;;;;5.63;4.05;;;7.10;99.90;;;;;;6246741;22;20019;-80
2023/03/17 03:08:29;;;;;;;8.32;4.13;;;7.10;99.90;;;;;;6273851;22;20042;-80
2023/03/17 03:10:54;;;;;;;9.70;4.35;;;7.10;99.90;;;;;;6273566;22;20000;-80
2023/03/17 03:13:20;;;;;;;8.18;4.50;;;7.10;99.90;;;;;;6246507;22;20011;-80
2023/03/17 03:15:46;;;;;;;7.13;4.22;;;7.10;99.90;;;;;;6274171;22;20073;-80
2023/03/17 03:18:12;;;;;;;7.13;4.30;;;7.20;99.90;;;;;;6246264;22;20015;-80
2023/03/17 03:20:40;;;;;;;5.50;4.00;;;7.20;99.90;;;;;;6274050;22;20012;-81
2023/03/17 03:23:05;;;;;;;8.63;4.30;;;7.20;99.90;;;;;;6246517;22;20023;-80
2023/03/17 03:25:32;;;;;;;8.10;4.00;;;7.20;99.90;;;;;;6245987;22;20022;-80
2023/03/17 03:27:57;;;;;;;6.72;3.83;;;7.20;99.90;;;;;;6246056;22;20008;-80
2023/03/17 03:30:23;;;;;;;9.80;4.45;;;7.20;99.90;;;;;;6221305;22;20468;-80
2023/03/17 03:32:48;;;;;;;8.68;4.40;;;7.20;99.90;;;;;;6273527;22;20011;-80
2023/03/17 03:35:14;;;;;;;8.13;4.45;;;7.20;99.90;;;;;;6274383;22;20035;-80
2023/03/17 03:37:39;;;;;;;10.02;3.72;;;7.20;99.90;;;;;;6273958;22;20042;-81
2023/03/17 03:40:06;;;;;;;8.40;3.78;;;7.20;99.90;;;;;;6245928;22;20069;-81
2023/03/17 03:42:32;;;;;;;7.97;4.57;;;7.20;99.90;;;;;;6273785;22;20012;-80
2023/03/17 03:44:57;;;;;;;6.05;4.07;;;7.50;99.90;;;;;;6273973;22;20011;-80
2023/03/17 03:47:23;;;;;;;7.03;3.88;;;7.20;99.90;;;;;;6273714;22;20015;-81
2023/03/17 03:49:48;;;;;;;8.68;4.18;;;7.20;99.90;;;;;;6246335;22;20012;-80
2023/03/17 03:52:14;;;;;;;7.70;3.95;;;7.20;99.90;;;;;;6246713;22;20046;-80
2023/03/17 03:54:40;;;;;;;8.38;4.20;;;7.20;99.90;;;;;;6245889;22;20084;-80
2023/03/17 03:57:05;;;;;;;9.20;4.10;;;7.20;99.90;;;;;;6273068;22;20073;-80
2023/03/17 03:59:31;;;;;;;6.72;4.43;;;7.10;99.90;;;;;;6273797;22;20012;-81
2023/03/17 04:01:57;;;;;;;5.30;3.80;;;7.20;99.90;;;;;;6246011;22;20486;-80
2023/03/17 04:04:22;;;;;;;5.50;3.45;;;7.10;99.90;;;;;;6246208;22;20014;-80
2023/03/17 04:06:48;;;;;;;8.45;4.15;;;7.10;99.90;;;;;;6273287;22;20245;-80
2023/03/17 04:09:14;;;;;;;7.93;4.10;;;7.10;99.90;;;;;;6273052;22;20008;-80
2023/03/17 04:11:40;;;;;;;6.05;4.00;;;7.10;99.90;;;;;;6246984;22;20449;-80
2023/03/17 04:14:06;;;;;;;6.03;3.60;;;7.00;99.90;;;;;;6246195;22;20019;-80
2023/03/17 04:16:31;;;;;;;8.50;4.03;;;7.00;99.90;;;;;;6245602;22;20015;-80
2023/03/17 04:18:57;;;;;;;6.55;3.85;;;7.00;99.90;;;;;;6246173;22;20015;-81
2023/03/17 04:21:23;;;;;;;9.82;4.55;;;7.00;99.90;;;;;;6246108;22;20019;-80
2023/03/17 04:23:48;;;;;;;7.15;4.10;;;7.00;99.90;;;;;;6272960;22;20396;-80
2023/03/17 04:26:16;;;;;;;8.63;3.83;;;6.90;99.90;;;;;;6245734;22;20008;-80
2023/03/17 04:28:42;;;;;;;7.00;3.97;;;7.00;99.90;;;;;;6273733;22;20114;-80
2023/03/17 04:31:12;;;;;;;7.40;4.20;;;7.10;99.90;;;;;;6273035;22;20083;-80
2023/03/17 04:33:38;;;;;;;6.88;4.20;;;7.00;99.90;;;;;;6273144;22;20480;-80
2023/03/17 04:36:05;;;;;;;8.25;4.35;;;7.00;99.90;;;;;;6245888;22;20054;-80
2023/03/17 04:38:30;;;;;;;11.75;4.45;;;7.10;99.90;;;;;;6272837;22;20114;-80
2023/03/17 04:40:56;;;;;;;6.55;4.30;;;7.00;99.90;;;;;;6245761;22;20117;-80
2023/03/17 04:43:21;;;;;;;6.22;3.80;;;7.00;99.90;;;;;;6273202;22;20011;-80
2023/03/17 04:45:47;;;;;;;5.85;4.00;;;7.00;99.90;;;;;;6273147;22;20111;-80
2023/03/17 04:48:13;;;;;;;6.45;3.95;;;7.00;99.90;;;;;;6273038;22;20066;-80
2023/03/17 04:50:38;;;;;;;9.25;4.10;;;7.00;99.90;;;;;;6274265;22;20018;-80
2023/03/17 04:53:04;;;;;;;8.48;4.15;;;7.00;99.90;;;;;;6273341;22;20062;-81
2023/03/17 04:55:30;;;;;;;6.80;4.38;;;7.00;99.90;;;;;;6246620;22;20012;-80
2023/03/17 04:57:55;;;;;;;6.60;3.70;;;6.90;99.90;;;;;;6246834;22;20022;-80
2023/03/17 05:00:21;;;;;;;7.75;4.93;;;6.90;99.90;;;;;;6274156;22;20010;-80
2023/03/17 05:02:47;;;;;;;7.32;3.92;;;6.90;99.90;;;;;;6273185;22;20019;-79
2023/03/17 05:05:12;;;;;;;7.60;3.60;;;6.90;99.90;;;;;;6274002;22;20016;-79
2023/03/17 05:07:38;;;;;;;6.88;4.25;;;7.20;99.90;;;;;;6273805;22;20100;-80
2023/03/17 05:10:05;;;;;;;8.02;4.18;;;6.80;99.90;;;;;;6272546;22;20014;-79
2023/03/17 05:12:31;;;;;;;9.00;4.20;;;6.80;99.90;;;;;;6246591;22;20008;-80
2023/03/17 05:14:56;;;;;;;8.40;4.10;;;6.80;99.90;;;;;;6246673;22;20495;-80
2023/03/17 05:17:22;;;;;;;8.07;3.65;;;6.80;99.90;;;;;;6273855;22;20012;-79
2023/03/17 05:19:47;;;;;;;6.60;4.13;;;6.80;99.90;;;;;;6274138;22;20099;-80
2023/03/17 05:22:16;;;;;;;8.55;3.80;;;6.90;99.90;;;;;;6273356;22;20019;-79
2023/03/17 05:24:42;;;;;;;7.82;3.80;;;6.90;99.90;;;;;;6246366;22;20026;-80
2023/03/17 05:27:07;;;;;;;8.00;4.50;;;6.90;99.90;;;;;;6274041;22;20004;-79
2023/03/17 05:29:33;;;;;;;5.85;4.10;;;6.90;99.90;;;;;;6246184;22;20038;-79
2023/03/17 05:31:59;;;;;;;7.82;4.10;;;7.00;99.90;;;;;;6274044;22;20016;-80
2023/03/17 05:34:24;;;;;;;8.15;3.92;;;7.00;99.90;;;;;;6246304;22;20392;-79
2023/03/17 05:36:50;;;;;;;8.50;4.05;;;7.00;99.90;;;;;;6245864;22;20072;-80
2023/03/17 05:39:16;;;;;;;9.70;4.32;;;7.10;99.90;;;;;;6274116;22;20110;-80
2023/03/17 05:41:41;;;;;;;7.60;4.30;;;7.40;99.90;;;;;;6246458;22;20016;-80
2023/03/17 05:44:07;;;;;;;8.18;4.13;;;7.10;99.90;;;;;;6246635;22;20015;-80
2023/03/17 05:46:33;;;;;;;7.28;4.10;;;7.10;99.90;;;;;;6273739;22;20330;-80
2023/03/17 05:48:58;;;;;;;6.85;3.95;;;7.50;99.90;;;;;;6243396;22;20367;-81
2023/03/17 05:51:24;;;;;;;11.80;3.90;;;7.20;99.90;;;;;;6245363;22;20035;-80
2023/03/17 05:53:50;;;;;;;7.88;4.20;;;7.20;99.90;;;;;;6246482;22;20015;-81
2023/03/17 05:56:16;;;;;;;6.72;4.00;;;7.20;99.90;;;;;;6246413;22;20038;-81
2023/03/17 05:58:41;;;;;;;7.40;3.85;;;7.20;99.90;;;;;;6273236;22;20011;-78
2023/03/17 06:01:07;;;;;;;5.90;3.78;;;7.20;99.90;;;;;;6220514;22;20377;-80
2023/03/17 06:03:32;;;;;;;8.40;4.25;;;7.20;99.90;;;;;;6272992;22;20023;-81
2023/03/17 06:05:58;;;;;;;6.75;4.10;;;7.20;99.90;;;;;;6242965;22;20466;-80
2023/03/17 06:08:23;;;;;;;8.40;3.90;;;7.20;99.90;;;;;;6273680;22;20031;-78
2023/03/17 06:10:49;;;;;;;6.03;3.85;;;7.20;99.90;;;;;;6273289;22;20004;-79
2023/03/17 06:13:15;;;;;;;10.45;3.90;;;7.20;99.90;;;;;;6245933;22;20035;-78
2023/03/17 06:15:43;;;;;;;9.73;3.95;;;7.30;99.90;;;;;;6273331;22;20026;-78
2023/03/17 06:18:09;;;;;;;8.35;4.00;;;7.30;99.90;;;;;;6272821;22;20008;-80
2023/03/17 06:20:35;;;;;;;14.00;4.40;;;7.30;99.90;;;;;;6246331;22;20019;-80
2023/03/17 06:23:01;;;;;;;9.63;4.35;;;7.40;99.90;;;;;;6246610;22;20087;-79
2023/03/17 06:25:27;;;;;;;7.43;4.28;;;7.40;99.90;;;;;;6246025;22;20089;-80
2023/03/17 06:27:54;;;;;;;10.52;4.88;;;7.40;99.90;;;;;;6273398;22;20007;-79
2023/03/17 06:30:21;;;;;;;8.68;4.20;;;7.50;99.90;;;;;;6245567;22;20027;-79
2023/03/17 06:32:47;;;;;;;8.68;4.43;;;7.50;99.90;;;;;;6272475;22;20437;-79
2023/03/17 06:35:12;;;;;;;10.38;4.53;;;7.50;99.90;;;;;;6246227;22;20020;-78
2023/03/17 06:37:38;;;;;;;7.28;4.10;;;7.50;99.90;;;;;;6246171;22;20461;-79
2023/03/17 06:40:08;;;;;;;9.95;4.18;;;7.50;99.90;;;;;;6246115;22;20026;-78
2023/03/17 06:42:35;;;;;;;7.57;4.20;;;7.60;99.90;;;;;;6273183;22;20023;-79
2023/03/17 06:45:01;;;;;;;7.00;3.95;;;7.50;99.90;;;;;;6273180;22;20107;-78
2023/03/17 06:47:27;;;;;;;9.02;4.18;;;7.50;99.90;;;;;;6272808;22;20035;-79
2023/03/17 06:49:52;;;;;;;8.60;4.30;;;7.60;99.90;;;;;;6245915;22;20112;-79
2023/03/17 06:52:18;;;;;;;6.60;3.95;;;7.60;99.90;;;;;;6273223;22;20059;-78
2023/03/17 06:54:43;;;;;;;7.85;3.92;;;7.50;99.90;;;;;;6246158;22;20307;-79
2023/03/17 06:57:09;;;;;;;8.38;4.35;;;7.60;99.90;;;;;;6246125;22;20686;-78
2023/03/17 06:59:35;;;;;;;8.18;4.25;;;7.70;99.90;;;;;;6245409;22;20015;-78
2023/03/17 07:02:01;;;;;;;6.28;4.20;;;7.70;99.90;;;;;;6245049;22;20012;-78
2023/03/17 07:04:27;;;;;;;7.65;4.47;;;7.70;99.90;;;;;;6246267;22;20048;-79
2023/03/17 07:06:52;;;;;;;7.75;4.50;;;7.80;99.90;;;;;;6273876;22;20473;-78
2023/03/17 07:09:18;;;;;;;7.38;4.15;;;7.80;99.90;;;;;;6246520;22;20311;-79
2023/03/17 07:11:43;;;;;;;8.93;4.50;;;7.90;99.90;;;;;;6273768;22;20054;-79
2023/03/17 07:14:09;;;;;;;8.30;4.07;;;7.90;99.90;;;;;;6246239;22;20040;-78
2023/03/17 07:16:34;;;;;;;8.35;4.20;;;7.90;99.90;;;;;;6219674;22;20457;-78
2023/03/17 07:19:00;;;;;;;9.65;4.60;;;8.00;99.90;;;;;;6248049;22;20037;-78
2023/03/17 07:21:26;;;;;;;8.07;4.40;;;8.00;99.90;;;;;;6275324;22;20011;-78
2023/03/17 07:23:52;;;;;;;9.50;4.20;;;8.10;99.90;;;;;;6248161;22;20374;-79
2023/03/17 07:26:18;;;;;;;6.97;4.28;;;8.20;99.90;;;;;;6275313;22;20007;-79
2023/03/17 07:28:44;;;;;;;7.57;3.78;;;8.30;99.90;;;;;;6274899;22;20503;-78
2023/03/17 07:31:12;;;;;;;6.78;3.97;;;8.30;99.90;;;;;;6247004;22;20369;-79
2023/03/17 07:33:39;;;;;;;7.20;4.43;;;8.40;99.90;;;;;;6274689;22;20074;-78
2023/03/17 07:36:06;;;;;;;7.30;4.18;;;8.40;99.90;;;;;;6247681;22;20501;-79
2023/03/17 07:38:32;;;;;;;8.90;4.10;;;8.50;99.90;;;;;;6275194;22;20019;-80
2023/03/17 07:40:58;;;;;;;7.38;4.00;;;8.60;99.90;;;;;;6247693;22;20533;-81
2023/03/17 07:43:24;;;;;;;6.38;4.40;;;9.00;99.90;;;;;;6247298;22;20012;-79
2023/03/17 07:45:50;;;;;;;8.88;3.90;;;8.80;99.90;;;;;;6274454;22;20061;-79
2023/03/17 07:48:16;;;;;;;11.45;4.70;;;8.90;99.90;;;;;;6247693;22;20016;-79
2023/03/17 07:50:42;;;;;;;11.82;4.55;;;8.90;99.90;;;;;;6274905;22;20035;-79
2023/03/17 07:53:07;;;;;;;8.05;3.92;;;9.00;99.90;;;;;;6275327;22;20003;-79
2023/03/17 07:55:34;;;;;;;9.10;4.05;;;9.00;99.90;;;;;;6247609;22;20068;-79
2023/03/17 07:58:00;;;;;;;7.70;4.22;;;9.20;99.90;;;;;;6275033;22;20460;-80
2023/03/17 08:00:27;;;;;;;7.10;4.63;;;9.40;99.90;;;;;;6274020;22;20019;-80
2023/03/17 08:02:54;;;;;;;6.80;3.95;;;9.80;99.90;;;;;;6247451;22;20026;-79
2023/03/17 08:05:20;;;;;;;8.60;4.28;;;9.70;99.90;;;;;;6274916;22;20377;-79
2023/03/17 08:07:46;;;;;;;10.10;4.60;;;9.80;99.90;;;;;;6247665;22;20070;-80
2023/03/17 08:10:12;;;;;;;7.97;4.20;;;9.80;99.90;;;;;;6247366;22;20438;-80
2023/03/17 08:12:38;;;;;;;8.00;4.20;;;9.80;99.90;;;;;;6247519;22;20019;-79
2023/03/17 08:15:05;;;;;;;7.88;4.00;;;9.90;99.90;;;;;;6246871;22;20141;-79
2023/03/17 08:17:31;;;;;;;6.10;4.13;;;9.80;99.90;;;;;;6274539;22;20018;-79
2023/03/17 08:19:57;;;;;;;7.70;4.22;;;9.90;99.90;;;;;;6222152;22;20012;-82
2023/03/17 08:22:23;;;;;;;7.18;4.55;;;9.90;99.90;;;;;;6247506;22;20008;-78
2023/03/17 08:24:49;;;;;;;6.72;4.03;;;9.90;99.90;;;;;;6247165;22;20008;-79
2023/03/17 08:27:17;;;;;;;8.27;4.15;;;9.90;99.90;;;;;;6221241;22;20007;-79
2023/03/17 08:29:43;;;;;;;9.65;4.15;;;10.00;99.90;;;;;;6274094;22;20008;-79
2023/03/17 08:32:08;;;;;;;9.77;4.68;;;9.90;99.90;;;;;;6247286;22;20018;-79
2023/03/17 08:34:35;;;;;;;10.55;4.10;;;10.00;99.90;;;;;;6247083;22;20039;-80
2023/03/17 08:37:00;;;;;;;7.55;4.03;;;10.00;99.90;;;;;;6246691;22;20102;-80
2023/03/17 08:39:28;;;;;;;8.88;4.10;;;10.00;99.90;;;;;;6246506;22;20523;-79
2023/03/17 08:41:54;;;;;;;10.73;4.25;;;10.00;99.90;;;;;;6272863;22;20038;-79
2023/03/17 08:44:20;;;;;;;6.88;4.15;;;10.00;99.90;;;;;;6272528;22;20028;-84
2023/03/17 08:46:48;;;;;;;7.65;4.20;;;10.00;99.90;;;;;;6274272;22;20438;-80
2023/03/17 08:49:14;;;;;;;7.90;4.20;;;10.10;99.90;;;;;;6246583;22;20019;-80
2023/03/17 08:51:40;;;;;;;8.15;4.20;;;10.20;99.90;;;;;;6274476;22;20007;-80
2023/03/17 08:54:07;;;;;;;9.90;3.90;;;10.30;99.90;;;;;;6246990;22;20022;-80
2023/03/17 08:56:33;;;;;;;6.72;3.95;;;10.40;99.90;;;;;;6246858;22;20019;-80
2023/03/17 08:58:59;;;;;;;7.28;4.30;;;10.50;99.90;;;;;;6246381;22;20163;-80
2023/03/17 09:01:26;;;;;;;8.57;4.13;;;10.60;99.90;;;;;;6274561;22;20007;-80
2023/03/17 09:03:55;;;;;;;6.38;3.78;;;10.70;99.90;;;;;;6246585;22;20033;-80
2023/03/17 09:06:21;;;;;;;6.32;4.10;;;10.90;99.90;;;;;;6274354;22;20008;-80
2023/03/17 09:08:53;;;;;;;7.88;3.90;;;11.00;99.90;;;;;;6247051;22;20014;-80
2023/03/17 09:11:22;;;;;;;9.90;4.32;;;11.10;99.90;;;;;;6221435;22;20073;-80
2023/03/17 09:13:48;;;;;;;6.03;3.70;;;11.20;99.90;;;;;;6220828;22;20015;-80
2023/03/17 09:16:15;;;;;;;6.18;4.03;;;11.30;99.90;;;;;;6247068;22;20016;-80
2023/03/17 09:18:41;;;;;;;7.32;4.40;;;11.30;99.90;;;;;;6274402;22;20008;-80
2023/03/17 09:21:09;;;;;;;7.82;4.38;;;11.60;99.90;;;;;;6274003;22;20015;-80
2023/03/17 09:23:35;;;;;;;9.15;4.40;;;11.50;99.90;;;;;;6246724;22;20019;-80
2023/03/17 09:26:02;;;;;;;6.97;4.50;;;11.40;99.90;;;;;;6246511;22;20012;-80
2023/03/17 09:28:28;;;;;;;10.20;4.78;;;11.50;99.90;;;;;;6246131;22;20007;-80
2023/03/17 09:30:58;;;;;;;9.40;4.50;;;11.60;99.90;;;;;;6221325;22;20039;-79
2023/03/17 09:33:23;;;;;;;6.38;4.07;;;11.60;99.90;;;;;;6246947;22;20018;-80
2023/03/17 09:35:51;;;;;;;8.10;4.40;;;11.70;99.90;;;;;;6246590;22;20086;-80
2023/03/17 09:38:17;;;;;;;8.63;4.47;;;11.80;99.90;;;;;;6246412;22;20434;-79
2023/03/17 09:40:53;;;;;;;9.07;4.40;;;11.80;99.90;;;;;;6221403;22;20012;-80
2023/03/17 09:43:36;;;;;;;7.00;4.28;;;11.90;99.90;;;;;;6246186;22;20052;-80
2023/03/17 09:46:38;;;;;;;9.43;4.20;;;12.00;99.90;;;;;;6246704;22;20334;-80
2023/03/17 09:49:11;;;;;;;8.45;4.75;;;12.10;99.90;;;;;;6247367;22;20019;-80
2023/03/17 09:51:38;;;;;;;8.18;4.78;;;12.30;99.90;;;;;;6247359;22;20008;-80
2023/03/17 09:54:10;;;;;;;10.05;4.00;;;12.40;99.90;;;;;;6246660;22;20043;-80
2023/03/17 09:56:40;;;;;;;7.55;4.50;;;12.30;99.90;;;;;;6246179;22;20020;-80
2023/03/17 09:59:26;;;;;;;9.32;4.30;;;12.50;99.90;;;;;;6221258;22;20047;-80
2023/03/17 10:01:52;;;;;;;10.45;4.50;;;12.60;99.90;;;;;;6245900;22;20069;-79
2023/03/17 10:04:17;;;;;;;7.45;4.90;;;12.70;99.90;;;;;;6221139;22;20024;-80
2023/03/17 10:06:48;;;;;;;9.15;4.88;;;12.80;99.90;;;;;;6220955;22;20442;-80
2023/03/17 10:09:14;;;;;;;7.97;4.72;;;12.90;99.90;;;;;;6247114;22;20487;-80
2023/03/17 10:11:46;;;;;;;9.10;4.40;;;13.00;99.90;;;;;;6245822;22;20099;-80
2023/03/17 10:14:30;;;;;;;7.38;4.63;;;13.00;99.90;;;;;;6246587;22;20015;-80
2023/03/17 10:17:16;;;;;;;7.57;4.57;;;13.20;99.90;;;;;;6221095;22;20015;-80
2023/03/17 10:20:07;;;;;;;9.70;4.40;;;13.30;99.90;;;;;;6221220;22;20011;-80
2023/03/17 10:22:49;;;;;;;7.90;4.28;;;13.40;99.90;;;;;;6246495;22;20445;-80
2023/03/17 10:25:18;;;;;;;6.63;4.13;;;13.50;99.90;;;;;;6220582;22;20023;-80
2023/03/17 10:27:58;;;;;;;8.10;5.10;;;13.50;99.90;;;;;;6246330;22;20275;-80
2023/03/17 10:30:26;;;;;;;8.18;4.60;;;13.70;99.90;;;;;;6273864;22;20099;-80
2023/03/17 10:32:55;;;;;;;7.47;4.40;;;13.80;99.90;;;;;;6246316;22;20065;-80
2023/03/17 10:35:23;;;;;;;15.50;4.60;;;14.00;99.90;;;;;;6221047;22;20147;-80
2023/03/17 10:37:49;;;;;;;9.75;5.03;;;14.00;99.90;;;;;;6246833;22;20287;-80
2023/03/17 10:40:35;;;;;;;7.18;4.45;;;14.10;99.90;;;;;;6245725;22;20050;-80
2023/03/17 10:43:06;;;;;;;8.75;4.97;;;14.10;99.90;;;;;;6246263;22;20334;-80
2023/03/17 10:45:39;;;;;;;7.88;4.72;;;14.10;99.90;;;;;;6246130;22;20012;-80
2023/03/17 10:48:08;;;;;;;7.78;4.75;;;14.20;99.90;;;;;;6246220;22;20082;-80
2023/03/17 10:50:37;;;;;;;8.77;4.78;;;14.30;99.90;;;;;;6221403;22;20015;-79
2023/03/17 10:53:02;;;;;;;8.18;5.22;;;14.30;99.90;;;;;;6222809;22;20012;-80
2023/03/17 10:55:41;;;;;;;9.63;4.82;;;14.40;99.90;;;;;;6221990;22;20081;-80
2023/03/17 10:58:14;;;;;;;9.10;5.43;;;14.50;99.90;;;;;;6248071;22;20012;-80
2023/03/17 11:00:55;;;;;;;7.55;4.68;;;14.50;99.90;;;;;;6247955;22;20008;-80
2023/03/17 11:03:24;;;;;;;10.43;5.05;;;14.60;99.90;;;;;;6217456;23;20473;-80
2023/03/17 11:06:11;;;;;;;9.77;4.90;;;14.70;99.90;;;;;;6242951;23;20027;-80
2023/03/17 11:08:44;;;;;;;8.20;4.68;;;14.80;99.90;;;;;;6242358;23;20142;-80
2023/03/17 11:11:21;;;;;;;9.83;4.70;;;14.80;99.90;;;;;;6217614;23;20016;-78
2023/03/17 11:13:47;;;;;;;7.85;4.50;;;14.90;99.90;;;;;;6243249;23;20043;-79
2023/03/17 11:16:23;;;;;;;13.65;5.10;;;14.90;99.90;;;;;;6243232;23;20039;-79
2023/03/17 11:18:56;;;;;;;7.00;4.55;;;14.90;99.90;;;;;;6245043;22;20012;-79
2023/03/17 11:21:45;;;;;;;8.68;4.43;;;14.90;99.90;;;;;;6243508;23;20016;-80
2023/03/17 11:24:29;;;;;;;9.93;4.75;;;15.10;99.90;;;;;;6244647;22;20062;-80
2023/03/17 11:27:29;;;;;;;8.38;5.07;;;15.30;99.90;;;;;;6244793;22;20331;-79
2023/03/17 11:30:01;;;;;;;7.75;5.03;;;15.50;99.90;;;;;;6242536;23;20089;-80
2023/03/17 11:32:32;;;;;;;7.68;4.70;;;15.70;99.90;;;;;;6217809;23;20014;-80
2023/03/17 11:35:16;;;;;;;8.80;4.60;;;15.70;99.90;;;;;;6217429;23;20043;-79
2023/03/17 11:38:07;;;;;;;10.38;4.75;;;15.80;99.90;;;;;;6242022;23;20035;-79
2023/03/17 11:40:57;;;;;;;8.95;4.35;;;15.80;99.90;;;;;;6244484;22;20023;-79
2023/03/17 11:43:51;;;;;;;14.82;5.38;;;15.80;99.90;;;;;;6216150;23;20334;-80
2023/03/17 11:46:35;;;;;;;10.88;5.00;;;15.80;99.90;;;;;;6241710;23;20016;-80
2023/03/17 11:49:17;;;;;;;8.10;5.50;;;15.80;99.90;;;;;;6243415;22;20023;-80
2023/03/17 11:52:10;;;;;;;7.70;5.17;;;15.80;99.90;;;;;;6242898;22;20126;-80
2023/03/17 11:55:07;;;;;;;7.70;5.32;;;15.90;99.90;;;;;;6216113;23;20027;-80
2023/03/17 11:57:54;;;;;;;8.75;5.80;;;15.80;99.90;;;;;;6224533;23;20019;-79
2023/03/17 12:00:41;;;;;;;8.68;6.20;;;15.90;99.90;;;;;;6244659;22;20091;-80
2023/03/17 12:03:26;;;;;;;9.73;5.57;;;15.80;99.90;;;;;;6217138;23;20083;-79
2023/03/17 12:05:57;;;;;;;11.20;5.65;;;15.80;99.90;;;;;;6242766;23;20307;-80
2023/03/17 12:08:28;;;;;;;8.63;5.53;;;15.90;99.90;;;;;;6242212;23;20008;-80
2023/03/17 12:10:57;;;;;;;22.40;6.35;;;15.90;99.90;;;;;;6217317;23;20062;-81
2023/03/17 12:13:54;;;;;;;8.70;5.25;;;16.00;99.90;;;;;;6243202;23;20342;-80
2023/03/17 12:16:37;;;;;;;9.45;5.22;;;16.00;99.90;;;;;;6242757;23;20008;-80
2023/03/17 12:19:02;;;;;;;9.68;5.32;;;16.10;99.90;;;;;;6243316;23;20008;-79
2023/03/17 12:21:46;;;;;;;8.05;5.57;;;16.10;99.90;;;;;;6244023;22;20107;-80
2023/03/17 12:24:21;;;;;;;11.82;5.82;;;16.20;99.90;;;;;;6217404;23;20079;-80
2023/03/17 12:26:57;;;;;;;10.25;5.18;;;16.20;99.90;;;;;;6242502;23;20016;-80
2023/03/17 12:29:42;;;;;;;8.98;5.57;;;16.20;99.90;;;;;;6217223;23;20019;-80
2023/03/17 12:32:25;;;;;;;9.45;5.40;;;16.30;99.90;;;;;;6242936;23;20008;-80
2023/03/17 12:34:54;;;;;;;8.40;5.50;;;16.20;99.90;;;;;;6244420;22;20016;-81
2023/03/17 12:37:22;;;;;;;8.93;5.80;;;16.20;99.90;;;;;;6267825;22;20087;-80
2023/03/17 12:40:00;;;;;;;10.02;5.20;;;16.30;99.90;;;;;;6217247;23;20015;-80
2023/03/17 12:42:37;;;;;;;8.52;5.80;;;16.40;99.90;;;;;;6217259;23;20015;-80
2023/03/17 12:45:27;;;;;;;8.60;5.22;;;16.50;99.90;;;;;;6217043;23;20473;-80
2023/03/17 12:48:47;;;;;;;10.38;5.43;;;16.60;99.90;;;;;;6244339;22;20008;-80
2023/03/17 12:51:40;;;;;;;21.83;6.32;;;16.50;99.90;;;;;;6155414;23;20019;-80
2023/03/17 12:54:23;;;;;;;8.77;5.80;;;16.50;99.90;;;;;;6131438;23;20021;-80
2023/03/17 12:56:49;;;;;;;8.45;5.90;;;16.50;99.90;;;;;;6155871;23;20053;-80
2023/03/17 12:59:20;;;;;;;9.13;6.13;;;16.50;99.90;;;;;;6155684;23;20024;-80
2023/03/17 13:02:04;;;;;;;8.30;5.72;;;16.50;99.90;;;;;;6155805;23;20399;-80
2023/03/17 13:04:34;;;;;;;8.88;6.13;;;16.50;99.90;;;;;;6155010;23;20096;-80